Hauptseite
METAR-TAF:

METAR-TAF

Flughäfen :

Flughafen Luxemburg

Luxemburg, Luxemburg

Breite: 49-37N, Länge: 006-13E, Höhe: 376 m

Beobachtung

Neuester Wetterbericht von vor 19 Minuten, um 02:20 UTC
Wind 8 kt aus Nord/Nordost
Temperatur 17°C
Luftfeuchtigkeit 68%
Luftdruck 1019 hPa
Sichtweite 10 km oder mehr

METAR: ELLX 180220Z AUTO 03008KT 9999 SCT071/// 17/11 Q1019 NOSIG

Zeit: 04:39 (02:39 UTC)

Prognose

Neuester Wetterbericht von vor 3 Stunden und 39 Minuten, um 23:00 UTC
Gültige Prognose vom 18 um 00 UTC bis 19 um 06 UTC
Wind 7 kt aus Nord/Nordwest
Sichtweite 10 km oder mehr
keine Wolken unter 1500 m und keine Kumulonimbus oder Gewitterwolken
Übergehend zu
vom 18 um 00 UTC bis 18 um 03 UTC
Wind 7 kt aus Nord/Nordost

TAF: ELLX 172300Z 1800/1906 33007KT CAVOK BECMG 1800/1803 02007KT

Wetterbeobachtungen und Prognosen von mehr als 4000 Flughäfen (METAR und TAF Bericht).

Die verfügbaren Stationen werden durch gelbe und rote Markierungen auf der Karte dargestellt.

Führen Sie die Maus auf sie, um den Namen der Station zu sehen.

Darauf klicken, um die Beobachtung von Wetterbeobachtungen und Prognosen zu sehen.

Um die Karte zu ändern : klicken Sie auf den grünen Tasten mit einem schwarzen Kreuz Zum Vergrößern, auf den grünen Button mit einem Gedankenstrich zu verkleinern, oder auf die grünen Pfeile für benachbarte Karten.


METAR-TAF: